Detall de PIREP

Printer-friendly versionPDF version

[2009/06/26 22:15:00]
Flight IATA:CT3244
Pilot Number:011
Company ICAO:CAT
Aircraft Type:B738/F
PAX:160
Departing Airport: LEPA
Destination Airport: ESSA
Alternate Airport:ENGM
Online: VATSIM
Route:MEROS UN853 MOLUS UN871 KUDES UN851 TRS
Flight Level:FL380
No Slew and time accel
No pause
Crash detect
Detect pilot in Cockpit between each 30 and 45 minutes
22:15 Zero fuel Weight: 135300 Lbs, Fuel Weight: 30401 Lbs
22:15 VATSIM:LEPA 262200Z 24002KT 9999 FEW020 21/18 Q1013 NOSIG
22:15 VATSIM:ESSA 262150Z 04007KT CAVOK 14/11 Q1027 NOSIG
22:19 Parking Brakes off
22:32 Take-off
22:32 Take off Weight: 164247 Lbs
22:32 Wind: 242 @ 002 Knots Heading: 238
22:32 POS N39 32 49 E002 44 38
22:32 Flaps:4 at 186 Knots
22:32 Gear Up: 195 Knots
22:33 Flaps:3 at 275 Knots
22:33 Flaps:2 at 262 Knots
22:33 Flaps:1 at 262 Knots
22:33 Flaps:0 at 261 Knots
22:47 Wind:359@01
3 Knots Heading: 037 Ground Speed: 376 Knots Altitude 29826 ft
22:56 TOC
22:56 Fuel Weight: 24642 Lb
23:02 Wind:330@020 Knots Heading: 008 Ground Speed: 437 Knots Altitude 37979 ft
23:17 Wind:355@055 Knots Heading: 029 Ground Speed: 410 Knots Altitude 37893 ft
23:32 Wind:011@008 Knots Heading: 026 Ground Speed: 445 Knots Altitude 37900 ft
23:47 Wind:247@005 Knots Heading: 357 Ground Speed: 451 Knots Altitude 37998 ft
00:02 Wind:277@008 Knots Heading: 037 Ground Speed: 458 Knots Altitude 37979 ft
00:17 Wind:036@004 Knots Heading: 006 Ground Speed: 450 Knots Altitude 37946 ft
00:32 Wind:039@007 Knots Heading: 013 Ground Speed: 445 Knots Altitude 37982 ft
00:47 Wind:059@035 Knots Heading: 023 Ground Speed: 419 Knots Altitude 38061 ft
01:02 Wind:061@037 Knots Heading: 027 Ground Speed: 413 Knots Altitude 38116 ft
01:17 Wind:042@007 Knots Heading: 03
6 Ground Speed: 420 Knots Altitude 38228 ft
01:32 Wind:040@029 Knots Heading: 037 Ground Speed: 406 Knots Altitude 38303 ft
01:36 TOD
01:36 Fuel Weight: 12514 Lb
01:47 Wind:050@008 Knots Heading: 038 Ground Speed: 371 Knots Altitude 19337 ft
01:59 Flaps:1 at 273 Knots
01:59 Flaps:2 at 270 Knots
02:00 Flaps:3 at 249 Knots
02:00 Flaps:4 at 248 Knots
02:01 Flaps:5 at 199 Knots
02:01 Flaps:6 at 189 Knots
02:02 Wind:019@011 Knots Heading: 041 Ground Speed: 169 Knots Altitude 4196 ft
02:05 Flaps:7 at 166 Knots
02:06 Gear Down: 152 Knots
02:06 Flaps:8 at 149 Knots
02:08 TouchDown:Rate -221 ft/min Speed: 124 Knots
02:09 VATSIM:ESSA 270150Z 02008KT CAVOK 11/09 Q1026 NOSIG
02:09 Land
02:09 Wind:017@006 Knots
02:09 Heading: 010
02:09 Flight Duration: 03:37
02:09 Landing Weight: 146178 Lbs
02:09 POS N59 39 26 E017 55 13
02:12 Parking brakes on
02:
12 Block to Block Duration: 03:53
02:12 Final Fuel: 10568 Lbls
02:12 Spent Fuel: 19832 Lbls
02:12 Flight Length: 1073 NM
02:12 TOD Land Length: 98 NM

Exportar CSV

Powered by Drupal - Modified by Danger4k